sensor_id;sensor_type;location;lat;lon;timestamp;pressure;altitude;pressure_sealevel;temperature;humidity
64066;BME280;50318;54.760;9.408;2022-10-15T00:00:08;100117.63;;;17.16;72.91
64066;BME280;50318;54.760;9.408;2022-10-15T00:02:33;100114.88;;;17.16;72.71
64066;BME280;50318;54.760;9.408;2022-10-15T00:04:59;100121.91;;;17.17;72.81
64066;BME280;50318;54.760;9.408;2022-10-15T00:07:24;100120.16;;;17.20;72.55
64066;BME280;50318;54.760;9.408;2022-10-15T00:09:50;100116.63;;;17.19;72.77
64066;BME280;50318;54.760;9.408;2022-10-15T00:12:16;100109.06;;;17.20;72.84
64066;BME280;50318;54.760;9.408;2022-10-15T00:14:41;100108.31;;;17.19;72.72
64066;BME280;50318;54.760;9.408;2022-10-15T00:17:09;100108.31;;;17.19;72.83
64066;BME280;50318;54.760;9.408;2022-10-15T00:19:34;100109.81;;;17.21;72.65
64066;BME280;50318;54.760;9.408;2022-10-15T00:22:00;100111.31;;;17.22;72.79
64066;BME280;50318;54.760;9.408;2022-10-15T00:24:26;100106.53;;;17.22;72.71
64066;BME280;50318;54.760;9.408;2022-10-15T00:26:52;100103.25;;;17.24;72.68
64066;BME280;50318;54.760;9.408;2022-10-15T00:29:17;100106.00;;;17.24;72.80
64066;BME280;50318;54.760;9.408;2022-10-15T00:31:43;100102.72;;;17.25;72.89
64066;BME280;50318;54.760;9.408;2022-10-15T00:34:08;100104.25;;;17.26;72.83
64066;BME280;50318;54.760;9.408;2022-10-15T00:36:34;100094.69;;;17.27;72.83
64066;BME280;50318;54.760;9.408;2022-10-15T00:39:01;100087.88;;;17.28;72.79
64066;BME280;50318;54.760;9.408;2022-10-15T00:41:29;100094.19;;;17.29;72.48
64066;BME280;50318;54.760;9.408;2022-10-15T00:48:57;100086.09;;;17.31;72.79
64066;BME280;50318;54.760;9.408;2022-10-15T00:51:24;100095.16;;;17.31;72.70
64066;BME280;50318;54.760;9.408;2022-10-15T00:53:51;100092.63;;;17.33;72.75
64066;BME280;50318;54.760;9.408;2022-10-15T00:56:16;100098.94;;;17.34;72.92
64066;BME280;50318;54.760;9.408;2022-10-15T00:58:45;100100.94;;;17.33;72.59
64066;BME280;50318;54.760;9.408;2022-10-15T01:01:11;100100.44;;;17.35;72.79
64066;BME280;50318;54.760;9.408;2022-10-15T01:03:37;100101.19;;;17.35;72.71
64066;BME280;50318;54.760;9.408;2022-10-15T01:06:03;100100.69;;;17.37;72.81
64066;BME280;50318;54.760;9.408;2022-10-15T01:08:28;100105.72;;;17.38;72.69
64066;BME280;50318;54.760;9.408;2022-10-15T01:10:58;100091.09;;;17.38;72.84
64066;BME280;50318;54.760;9.408;2022-10-15T01:19:03;100085.56;;;17.38;72.81
64066;BME280;50318;54.760;9.408;2022-10-15T01:21:33;100079.25;;;17.37;72.81
64066;BME280;50318;54.760;9.408;2022-10-15T01:24:08;100076.47;;;17.37;72.70
64066;BME280;50318;54.760;9.408;2022-10-15T01:27:04;100076.72;;;17.39;72.91
64066;BME280;50318;54.760;9.408;2022-10-15T01:29:57;100073.19;;;17.39;72.91
64066;BME280;50318;54.760;9.408;2022-10-15T01:32:29;100073.19;;;17.39;72.94
64066;BME280;50318;54.760;9.408;2022-10-15T01:35:03;100069.91;;;17.40;72.95
64066;BME280;50318;54.760;9.408;2022-10-15T01:37:37;100063.84;;;17.42;72.81
64066;BME280;50318;54.760;9.408;2022-10-15T01:40:11;100062.34;;;17.41;72.88
64066;BME280;50318;54.760;9.408;2022-10-15T01:42:42;100068.66;;;17.41;72.89
64066;BME280;50318;54.760;9.408;2022-10-15T01:45:13;100073.69;;;17.43;72.85
64066;BME280;50318;54.760;9.408;2022-10-15T01:48:08;100069.63;;;17.44;72.80
64066;BME280;50318;54.760;9.408;2022-10-15T01:50:35;100062.81;;;17.45;72.62
64066;BME280;50318;54.760;9.408;2022-10-15T01:53:02;100058.03;;;17.45;72.72
64066;BME280;50318;54.760;9.408;2022-10-15T01:55:29;100054.75;;;17.47;72.83
64066;BME280;50318;54.760;9.408;2022-10-15T01:57:57;100057.00;;;17.48;72.79
64066;BME280;50318;54.760;9.408;2022-10-15T02:00:34;100047.19;;;17.47;72.64
64066;BME280;50318;54.760;9.408;2022-10-15T02:03:01;100038.34;;;17.49;72.69
64066;BME280;50318;54.760;9.408;2022-10-15T02:05:29;100049.72;;;17.51;72.48
64066;BME280;50318;54.760;9.408;2022-10-15T02:10:26;100044.16;;;17.51;72.68
64066;BME280;50318;54.760;9.408;2022-10-15T02:13:01;100042.13;;;17.52;72.79
64066;BME280;50318;54.760;9.408;2022-10-15T02:15:35;100051.22;;;17.52;72.72
64066;BME280;50318;54.760;9.408;2022-10-15T02:20:32;100048.16;;;17.50;72.57
64066;BME280;50318;54.760;9.408;2022-10-15T02:23:07;100054.97;;;17.49;72.42
64066;BME280;50318;54.760;9.408;2022-10-15T02:25:34;100043.88;;;17.49;72.50
64066;BME280;50318;54.760;9.408;2022-10-15T02:28:24;100041.88;;;17.49;72.45
64066;BME280;50318;54.760;9.408;2022-10-15T02:30:52;100045.91;;;17.48;72.52
64066;BME280;50318;54.760;9.408;2022-10-15T02:33:20;100044.41;;;17.47;72.54
64066;BME280;50318;54.760;9.408;2022-10-15T02:35:47;100044.41;;;17.47;72.68
64066;BME280;50318;54.760;9.408;2022-10-15T02:38:15;100048.97;;;17.45;72.76
64066;BME280;50318;54.760;9.408;2022-10-15T02:40:42;100060.06;;;17.45;72.79
64066;BME280;50318;54.760;9.408;2022-10-15T02:43:09;100050.22;;;17.44;72.77
64066;BME280;50318;54.760;9.408;2022-10-15T02:45:36;100050.00;;;17.42;72.65
64066;BME280;50318;54.760;9.408;2022-10-15T02:48:02;100046.47;;;17.41;72.75
64066;BME280;50318;54.760;9.408;2022-10-15T02:50:27;100048.50;;;17.41;72.62
64066;BME280;50318;54.760;9.408;2022-10-15T02:52:53;100056.06;;;17.40;72.64
64066;BME280;50318;54.760;9.408;2022-10-15T02:55:18;100048.25;;;17.39;72.70
64066;BME280;50318;54.760;9.408;2022-10-15T02:57:44;100046.75;;;17.38;72.59
64066;BME280;50318;54.760;9.408;2022-10-15T03:00:10;100051.53;;;17.37;72.66
64066;BME280;50318;54.760;9.408;2022-10-15T03:02:36;100049.28;;;17.36;72.27
64066;BME280;50318;54.760;9.408;2022-10-15T03:05:02;100053.31;;;17.35;72.58
64066;BME280;50318;54.760;9.408;2022-10-15T03:07:28;100047.78;;;17.35;72.48
64066;BME280;50318;54.760;9.408;2022-10-15T03:09:55;100057.13;;;17.32;72.29
64066;BME280;50318;54.760;9.408;2022-10-15T03:12:22;100052.84;;;17.31;72.44
64066;BME280;50318;54.760;9.408;2022-10-15T03:14:49;100054.84;;;17.30;72.46
64066;BME280;50318;54.760;9.408;2022-10-15T03:17:15;100049.81;;;17.29;72.32
64066;BME280;50318;54.760;9.408;2022-10-15T03:19:41;100053.13;;;17.27;72.41
64066;BME280;50318;54.760;9.408;2022-10-15T03:22:07;100054.13;;;17.24;72.35
64066;BME280;50318;54.760;9.408;2022-10-15T03:24:41;100057.41;;;17.23;72.30
64066;BME280;50318;54.760;9.408;2022-10-15T03:27:07;100051.84;;;17.23;72.38
64066;BME280;50318;54.760;9.408;2022-10-15T03:29:36;100057.41;;;17.23;72.37
64066;BME280;50318;54.760;9.408;2022-10-15T03:32:02;100054.63;;;17.23;72.41
64066;BME280;50318;54.760;9.408;2022-10-15T03:34:30;100051.09;;;17.22;72.31
64066;BME280;50318;54.760;9.408;2022-10-15T03:36:55;100057.91;;;17.21;72.35
64066;BME280;50318;54.760;9.408;2022-10-15T03:39:21;100058.41;;;17.19;72.22
64066;BME280;50318;54.760;9.408;2022-10-15T03:41:51;100057.94;;;17.15;72.19
64066;BME280;50318;54.760;9.408;2022-10-15T03:44:22;100053.19;;;17.10;72.06
64066;BME280;50318;54.760;9.408;2022-10-15T03:46:57;100049.19;;;17.06;72.08
64066;BME280;50318;54.760;9.408;2022-10-15T03:49:32;100045.91;;;17.02;71.83
64066;BME280;50318;54.760;9.408;2022-10-15T03:52:00;100044.66;;;16.97;72.05
64066;BME280;50318;54.760;9.408;2022-10-15T03:54:26;100049.72;;;16.93;71.81
64066;BME280;50318;54.760;9.408;2022-10-15T03:56:52;100058.06;;;16.87;71.74
64066;BME280;50318;54.760;9.408;2022-10-15T03:59:27;100051.53;;;16.85;71.92
64066;BME280;50318;54.760;9.408;2022-10-15T04:01:58;100058.06;;;16.82;71.83
64066;BME280;50318;54.760;9.408;2022-10-15T04:04:24;100052.78;;;16.78;71.76
64066;BME280;50318;54.760;9.408;2022-10-15T04:06:50;100046.75;;;16.74;71.89
64066;BME280;50318;54.760;9.408;2022-10-15T04:09:17;100052.81;;;16.73;71.68
64066;BME280;50318;54.760;9.408;2022-10-15T04:11:42;100053.06;;;16.69;72.01
64066;BME280;50318;54.760;9.408;2022-10-15T04:14:09;100067.16;;;16.66;71.78
64066;BME280;50318;54.760;9.408;2022-10-15T04:16:34;100061.38;;;16.64;71.86
64066;BME280;50318;54.760;9.408;2022-10-15T04:19:08;100067.91;;;16.61;71.62
64066;BME280;50318;54.760;9.408;2022-10-15T04:21:34;100068.94;;;16.57;71.79
64066;BME280;50318;54.760;9.408;2022-10-15T04:24:02;100062.88;;;16.53;71.54
64066;BME280;50318;54.760;9.408;2022-10-15T04:26:33;100060.38;;;16.50;71.61
64066;BME280;50318;54.760;9.408;2022-10-15T04:28:59;100067.69;;;16.47;71.50
64066;BME280;50318;54.760;9.408;2022-10-15T04:31:25;100069.97;;;16.43;71.53
64066;BME280;50318;54.760;9.408;2022-10-15T04:33:52;100065.94;;;16.39;71.53
64066;BME280;50318;54.760;9.408;2022-10-15T04:36:17;100064.19;;;16.36;71.58
64066;BME280;50318;54.760;9.408;2022-10-15T04:38:58;100071.50;;;16.33;71.51
64066;BME280;50318;54.760;9.408;2022-10-15T04:41:33;100069.72;;;16.30;71.44
64066;BME280;50318;54.760;9.408;2022-10-15T04:44:05;100073.72;;;16.29;71.73
64066;BME280;50318;54.760;9.408;2022-10-15T04:46:31;100074.50;;;16.30;71.83
64066;BME280;50318;54.760;9.408;2022-10-15T04:49:01;100076.50;;;16.29;71.71
64066;BME280;50318;54.760;9.408;2022-10-15T04:51:27;100076.75;;;16.31;72.14
64066;BME280;50318;54.760;9.408;2022-10-15T04:54:03;100081.31;;;16.34;72.19
64066;BME280;50318;54.760;9.408;2022-10-15T04:56:29;100085.56;;;16.35;72.21
64066;BME280;50318;54.760;9.408;2022-10-15T04:58:55;100082.53;;;16.39;72.18
64066;BME280;50318;54.760;9.408;2022-10-15T05:01:23;100087.56;;;16.40;72.24
64066;BME280;50318;54.760;9.408;2022-10-15T05:03:57;100082.78;;;16.41;72.01
64066;BME280;50318;54.760;9.408;2022-10-15T05:06:34;100089.09;;;16.41;72.06
64066;BME280;50318;54.760;9.408;2022-10-15T05:09:13;100089.09;;;16.41;72.03
64066;BME280;50318;54.760;9.408;2022-10-15T05:11:42;100084.31;;;16.42;72.03
64066;BME280;50318;54.760;9.408;2022-10-15T05:14:11;100089.34;;;16.43;72.16
64066;BME280;50318;54.760;9.408;2022-10-15T05:16:37;100090.84;;;16.44;72.31
64066;BME280;50318;54.760;9.408;2022-10-15T05:19:04;100092.34;;;16.45;72.20
64066;BME280;50318;54.760;9.408;2022-10-15T05:21:31;100095.88;;;16.46;72.12
64066;BME280;50318;54.760;9.408;2022-10-15T05:24:01;100089.81;;;16.47;72.11
64066;BME280;50318;54.760;9.408;2022-10-15T05:26:58;100089.31;;;16.49;72.25
64066;BME280;50318;54.760;9.408;2022-10-15T05:29:28;100094.34;;;16.50;72.31
64066;BME280;50318;54.760;9.408;2022-10-15T05:31:53;100093.34;;;16.53;72.35
64066;BME280;50318;54.760;9.408;2022-10-15T05:34:22;100102.63;;;16.56;72.28
64066;BME280;50318;54.760;9.408;2022-10-15T05:36:54;100101.41;;;16.57;72.18
64066;BME280;50318;54.760;9.408;2022-10-15T05:39:19;100094.59;;;16.58;72.35
64066;BME280;50318;54.760;9.408;2022-10-15T05:41:45;100103.66;;;16.58;72.34
64066;BME280;50318;54.760;9.408;2022-10-15T05:44:15;100101.16;;;16.61;72.26
64066;BME280;50318;54.760;9.408;2022-10-15T05:46:42;100093.59;;;16.61;72.31
64066;BME280;50318;54.760;9.408;2022-10-15T05:49:09;100099.88;;;16.62;72.36
64066;BME280;50318;54.760;9.408;2022-10-15T05:51:50;100098.63;;;16.63;72.18
64066;BME280;50318;54.760;9.408;2022-10-15T05:54:30;100100.88;;;16.64;72.63
64066;BME280;50318;54.760;9.408;2022-10-15T05:56:56;100109.47;;;16.66;72.30
64066;BME280;50318;54.760;9.408;2022-10-15T05:59:21;100101.91;;;16.67;72.44
64066;BME280;50318;54.760;9.408;2022-10-15T06:01:47;100098.38;;;16.66;72.19
64066;BME280;50318;54.760;9.408;2022-10-15T06:04:17;100116.00;;;16.69;72.39
64066;BME280;50318;54.760;9.408;2022-10-15T06:06:43;100109.97;;;16.70;72.45
64066;BME280;50318;54.760;9.408;2022-10-15T06:09:08;100116.25;;;16.71;72.33
64066;BME280;50318;54.760;9.408;2022-10-15T06:11:35;100122.03;;;16.73;72.40
64066;BME280;50318;54.760;9.408;2022-10-15T06:14:00;100121.03;;;16.76;72.44
64066;BME280;50318;54.760;9.408;2022-10-15T06:16:26;100118.25;;;16.76;72.36
64066;BME280;50318;54.760;9.408;2022-10-15T06:18:51;100124.03;;;16.78;72.41
64066;BME280;50318;54.760;9.408;2022-10-15T06:21:17;100112.47;;;16.68;72.48
64066;BME280;50318;54.760;9.408;2022-10-15T06:23:43;100125.53;;;16.79;72.51
64066;BME280;50318;54.760;9.408;2022-10-15T06:26:09;100126.56;;;16.81;72.46
64066;BME280;50318;54.760;9.408;2022-10-15T06:28:35;100123.03;;;16.81;72.45
64066;BME280;50318;54.760;9.408;2022-10-15T06:31:02;100133.09;;;16.84;72.43
64066;BME280;50318;54.760;9.408;2022-10-15T06:33:29;100137.38;;;16.85;72.47
64066;BME280;50318;54.760;9.408;2022-10-15T06:35:59;100134.09;;;16.86;72.42
64066;BME280;50318;54.760;9.408;2022-10-15T06:38:46;100137.63;;;16.87;72.36
64066;BME280;50318;54.760;9.408;2022-10-15T06:41:37;100135.09;;;16.89;72.56
64066;BME280;50318;54.760;9.408;2022-10-15T06:44:02;100131.06;;;16.90;72.23
64066;BME280;50318;54.760;9.408;2022-10-15T06:46:28;100128.53;;;16.92;72.59
64066;BME280;50318;54.760;9.408;2022-10-15T06:48:53;100113.19;;;16.91;72.29
64066;BME280;50318;54.760;9.408;2022-10-15T06:51:20;100121.75;;;16.93;72.35
64066;BME280;50318;54.760;9.408;2022-10-15T06:53:48;100121.22;;;16.95;72.40
64066;BME280;50318;54.760;9.408;2022-10-15T06:56:14;100128.28;;;16.96;72.27
64066;BME280;50318;54.760;9.408;2022-10-15T06:58:41;100129.78;;;16.97;72.07
64066;BME280;50318;54.760;9.408;2022-10-15T07:01:07;100132.56;;;16.97;72.16
64066;BME280;50318;54.760;9.408;2022-10-15T07:03:34;100130.78;;;16.99;72.22
64066;BME280;50318;54.760;9.408;2022-10-15T07:06:02;100142.09;;;17.01;72.36
64066;BME280;50318;54.760;9.408;2022-10-15T07:08:28;100142.34;;;17.03;72.26
64066;BME280;50318;54.760;9.408;2022-10-15T07:10:54;100137.09;;;17.05;72.24
64066;BME280;50318;54.760;9.408;2022-10-15T07:13:22;100134.56;;;17.07;72.26
64066;BME280;50318;54.760;9.408;2022-10-15T07:15:47;100141.59;;;17.08;72.20
64066;BME280;50318;54.760;9.408;2022-10-15T07:18:18;100139.59;;;17.09;71.85
64066;BME280;50318;54.760;9.408;2022-10-15T07:20:43;100147.38;;;17.10;72.03
64066;BME280;50318;54.760;9.408;2022-10-15T07:23:09;100144.63;;;17.10;71.83
64066;BME280;50318;54.760;9.408;2022-10-15T07:25:35;100146.13;;;17.11;72.12
64066;BME280;50318;54.760;9.408;2022-10-15T07:28:01;100149.91;;;17.14;71.94
64066;BME280;50318;54.760;9.408;2022-10-15T07:30:26;100147.38;;;17.16;71.98
64066;BME280;50318;54.760;9.408;2022-10-15T07:32:54;100154.41;;;17.17;71.81
64066;BME280;50318;54.760;9.408;2022-10-15T07:35:19;100156.44;;;17.16;71.68
64066;BME280;50318;54.760;9.408;2022-10-15T07:37:45;100149.63;;;17.17;71.87
64066;BME280;50318;54.760;9.408;2022-10-15T07:40:17;100159.69;;;17.21;71.85
64066;BME280;50318;54.760;9.408;2022-10-15T07:42:43;100159.44;;;17.24;71.90
64066;BME280;50318;54.760;9.408;2022-10-15T07:45:09;100161.44;;;17.29;71.86
64066;BME280;50318;54.760;9.408;2022-10-15T07:47:34;100153.09;;;17.35;71.81
64066;BME280;50318;54.760;9.408;2022-10-15T07:50:00;100159.88;;;17.39;71.69
64066;BME280;50318;54.760;9.408;2022-10-15T07:52:58;100150.53;;;17.42;71.72
64066;BME280;50318;54.760;9.408;2022-10-15T07:55:24;100160.09;;;17.47;71.49
64066;BME280;50318;54.760;9.408;2022-10-15T07:57:49;100157.84;;;17.51;71.61
64066;BME280;50318;54.760;9.408;2022-10-15T08:00:15;100159.31;;;17.58;71.62
64066;BME280;50318;54.760;9.408;2022-10-15T08:02:41;100163.09;;;17.60;71.49
64066;BME280;50318;54.760;9.408;2022-10-15T08:05:07;100147.94;;;17.61;71.31
64066;BME280;50318;54.760;9.408;2022-10-15T08:07:32;100161.06;;;17.61;71.26
64066;BME280;50318;54.760;9.408;2022-10-15T08:10:00;100159.03;;;17.61;71.10
64066;BME280;50318;54.760;9.408;2022-10-15T08:12:25;100157.25;;;17.64;71.07
64066;BME280;50318;54.760;9.408;2022-10-15T08:14:51;100162.81;;;17.64;70.81
64066;BME280;50318;54.760;9.408;2022-10-15T08:17:18;100167.84;;;17.65;71.07
64066;BME280;50318;54.760;9.408;2022-10-15T08:19:44;100162.81;;;17.69;71.16
64066;BME280;50318;54.760;9.408;2022-10-15T08:22:09;100159.28;;;17.74;71.25
64066;BME280;50318;54.760;9.408;2022-10-15T08:24:36;100169.56;;;17.79;70.99
64066;BME280;50318;54.760;9.408;2022-10-15T08:27:02;100171.84;;;17.81;70.91
64066;BME280;50318;54.760;9.408;2022-10-15T08:29:27;100164.50;;;17.84;70.86
64066;BME280;50318;54.760;9.408;2022-10-15T08:31:53;100165.78;;;17.83;70.73
64066;BME280;50318;54.760;9.408;2022-10-15T08:34:22;100164.03;;;17.79;70.78
64066;BME280;50318;54.760;9.408;2022-10-15T08:36:47;100166.03;;;17.79;70.79
64066;BME280;50318;54.760;9.408;2022-10-15T08:39:14;100157.22;;;17.81;70.85
64066;BME280;50318;54.760;9.408;2022-10-15T08:44:10;100156.94;;;17.84;70.84
64066;BME280;50318;54.760;9.408;2022-10-15T08:46:41;100165.97;;;17.90;70.99
64066;BME280;50318;54.760;9.408;2022-10-15T08:49:32;100168.72;;;17.96;70.80
64066;BME280;50318;54.760;9.408;2022-10-15T08:52:07;100160.88;;;18.00;70.86
64066;BME280;50318;54.760;9.408;2022-10-15T08:54:39;100167.66;;;18.04;70.34
64066;BME280;50318;54.760;9.408;2022-10-15T09:02:44;100180.47;;;18.13;70.33
64066;BME280;50318;54.760;9.408;2022-10-15T09:05:21;100178.69;;;18.16;70.27
64066;BME280;50318;54.760;9.408;2022-10-15T09:12:54;100174.09;;;18.24;70.13
64066;BME280;50318;54.760;9.408;2022-10-15T09:15:23;100175.09;;;18.26;70.20
64066;BME280;50318;54.760;9.408;2022-10-15T09:17:50;100159.66;;;18.31;70.25
64066;BME280;50318;54.760;9.408;2022-10-15T09:20:29;100162.91;;;18.35;69.92
64066;BME280;50318;54.760;9.408;2022-10-15T09:22:56;100168.91;;;18.39;69.97
64066;BME280;50318;54.760;9.408;2022-10-15T09:25:22;100164.59;;;18.44;70.01
64066;BME280;50318;54.760;9.408;2022-10-15T09:27:50;100170.63;;;18.48;69.95
64066;BME280;50318;54.760;9.408;2022-10-15T09:32:49;100173.41;;;18.48;69.54
64066;BME280;50318;54.760;9.408;2022-10-15T09:35:18;100177.19;;;18.45;69.40
64066;BME280;50318;54.760;9.408;2022-10-15T09:42:54;100184.59;;;18.36;69.35
64066;BME280;50318;54.760;9.408;2022-10-15T09:45:24;100177.53;;;18.35;69.32
64066;BME280;50318;54.760;9.408;2022-10-15T09:47:49;100186.84;;;18.38;69.53
64066;BME280;50318;54.760;9.408;2022-10-15T09:50:15;100175.22;;;18.39;69.47
64066;BME280;50318;54.760;9.408;2022-10-15T09:53:02;100182.50;;;18.42;69.24
64066;BME280;50318;54.760;9.408;2022-10-15T09:58:11;100181.00;;;18.41;69.01
64066;BME280;50318;54.760;9.408;2022-10-15T10:03:18;100182.00;;;18.44;69.28
64066;BME280;50318;54.760;9.408;2022-10-15T10:05:46;100177.47;;;18.47;69.32
64066;BME280;50318;54.760;9.408;2022-10-15T10:08:23;100178.97;;;18.48;69.11
64066;BME280;50318;54.760;9.408;2022-10-15T10:10:53;100175.94;;;18.46;68.81
64066;BME280;50318;54.760;9.408;2022-10-15T10:13:53;100174.19;;;18.42;68.91
64066;BME280;50318;54.760;9.408;2022-10-15T10:16:11;100173.94;;;18.46;69.60
64066;BME280;50318;54.760;9.408;2022-10-15T10:18:37;100174.91;;;18.49;69.13
64066;BME280;50318;54.760;9.408;2022-10-15T10:21:20;100170.63;;;18.48;69.08
64066;BME280;50318;54.760;9.408;2022-10-15T10:23:46;100167.63;;;18.46;68.93
64066;BME280;50318;54.760;9.408;2022-10-15T10:26:12;100175.69;;;18.44;68.75
64066;BME280;50318;54.760;9.408;2022-10-15T10:28:45;100176.72;;;18.40;68.87
64066;BME280;50318;54.760;9.408;2022-10-15T10:31:15;100180.53;;;18.37;68.82
64066;BME280;50318;54.760;9.408;2022-10-15T10:36:32;100179.31;;;18.33;69.20
64066;BME280;50318;54.760;9.408;2022-10-15T10:44:41;100171.03;;;18.27;68.97
64066;BME280;50318;54.760;9.408;2022-10-15T10:52:43;100165.78;;;18.18;69.41
64066;BME280;50318;54.760;9.408;2022-10-15T10:55:15;100169.59;;;18.15;69.16
64066;BME280;50318;54.760;9.408;2022-10-15T10:57:44;100168.31;;;18.16;69.32
64066;BME280;50318;54.760;9.408;2022-10-15T11:00:13;100168.38;;;18.10;69.32
64066;BME280;50318;54.760;9.408;2022-10-15T11:02:40;100160.56;;;18.09;69.53
64066;BME280;50318;54.760;9.408;2022-10-15T11:05:08;100155.00;;;18.09;69.57
64066;BME280;50318;54.760;9.408;2022-10-15T11:13:44;100161.06;;;18.07;69.98
64066;BME280;50318;54.760;9.408;2022-10-15T11:16:31;100159.06;;;18.08;69.80
64066;BME280;50318;54.760;9.408;2022-10-15T11:19:05;100153.50;;;18.08;69.75
64066;BME280;50318;54.760;9.408;2022-10-15T11:29:20;100151.91;;;18.18;70.02
64066;BME280;50318;54.760;9.408;2022-10-15T11:31:51;100156.19;;;18.19;69.83
64066;BME280;50318;54.760;9.408;2022-10-15T11:34:31;100150.38;;;18.23;70.08
64066;BME280;50318;54.760;9.408;2022-10-15T11:37:12;100152.63;;;18.24;70.10
64066;BME280;50318;54.760;9.408;2022-10-15T11:42:14;100147.78;;;18.30;70.07
64066;BME280;50318;54.760;9.408;2022-10-15T11:55:01;100153.16;;;18.53;69.82
64066;BME280;50318;54.760;9.408;2022-10-15T11:57:28;100150.63;;;18.55;69.52
64066;BME280;50318;54.760;9.408;2022-10-15T12:00:02;100148.81;;;18.57;69.73
64066;BME280;50318;54.760;9.408;2022-10-15T12:02:37;100141.72;;;18.62;69.60
64066;BME280;50318;54.760;9.408;2022-10-15T12:07:29;100132.34;;;18.70;69.50
64066;BME280;50318;54.760;9.408;2022-10-15T12:12:58;100122.00;;;18.90;69.60
64066;BME280;50318;54.760;9.408;2022-10-15T12:20:34;100119.88;;;19.01;69.05
64066;BME280;50318;54.760;9.408;2022-10-15T12:23:01;100118.81;;;19.05;68.62
64066;BME280;50318;54.760;9.408;2022-10-15T12:25:38;100121.38;;;19.02;68.49
64066;BME280;50318;54.760;9.408;2022-10-15T12:28:27;100113.03;;;19.02;68.46
64066;BME280;50318;54.760;9.408;2022-10-15T12:33:23;100114.47;;;19.09;68.33
64066;BME280;50318;54.760;9.408;2022-10-15T12:35:54;100110.66;;;19.12;68.33
64066;BME280;50318;54.760;9.408;2022-10-15T12:40:45;100103.88;;;19.08;67.67
64066;BME280;50318;54.760;9.408;2022-10-15T12:43:12;100101.63;;;19.06;67.72
64066;BME280;50318;54.760;9.408;2022-10-15T12:45:55;100094.28;;;19.09;68.00
64066;BME280;50318;54.760;9.408;2022-10-15T12:48:29;100093.97;;;19.12;68.15
64066;BME280;50318;54.760;9.408;2022-10-15T12:53:43;100091.59;;;19.22;67.88
64066;BME280;50318;54.760;9.408;2022-10-15T12:58:40;100078.00;;;19.18;67.92
64066;BME280;50318;54.760;9.408;2022-10-15T13:13:46;100064.25;;;19.26;67.71
64066;BME280;50318;54.760;9.408;2022-10-15T13:16:13;100063.19;;;19.29;67.90
64066;BME280;50318;54.760;9.408;2022-10-15T13:18:39;100054.31;;;19.30;68.05
64066;BME280;50318;54.760;9.408;2022-10-15T13:21:45;100059.13;;;19.30;67.75
64066;BME280;50318;54.760;9.408;2022-10-15T13:24:10;100061.69;;;19.28;67.41
64066;BME280;50318;54.760;9.408;2022-10-15T13:26:36;100063.50;;;19.25;67.28
64066;BME280;50318;54.760;9.408;2022-10-15T13:29:01;100056.94;;;19.23;67.38
64066;BME280;50318;54.760;9.408;2022-10-15T13:31:28;100065.06;;;19.21;67.63
64066;BME280;50318;54.760;9.408;2022-10-15T13:33:55;100065.59;;;19.19;67.55
64066;BME280;50318;54.760;9.408;2022-10-15T13:36:26;100069.41;;;19.16;67.54
64066;BME280;50318;54.760;9.408;2022-10-15T13:38:58;100062.88;;;19.14;67.69
64066;BME280;50318;54.760;9.408;2022-10-15T13:41:35;100064.13;;;19.13;67.79
64066;BME280;50318;54.760;9.408;2022-10-15T13:44:24;100065.41;;;19.12;67.53
64066;BME280;50318;54.760;9.408;2022-10-15T13:46:49;100070.47;;;19.13;67.71
64066;BME280;50318;54.760;9.408;2022-10-15T13:49:50;100066.63;;;19.16;67.74
64066;BME280;50318;54.760;9.408;2022-10-15T13:52:19;100064.84;;;19.19;68.00
64066;BME280;50318;54.760;9.408;2022-10-15T13:54:58;100059.72;;;19.23;67.94
64066;BME280;50318;54.760;9.408;2022-10-15T13:57:23;100056.88;;;19.28;67.72
64066;BME280;50318;54.760;9.408;2022-10-15T14:00:00;100048.00;;;19.30;67.77
64066;BME280;50318;54.760;9.408;2022-10-15T14:02:37;100047.25;;;19.29;67.49
64066;BME280;50318;54.760;9.408;2022-10-15T14:05:15;100050.13;;;19.24;66.96
64066;BME280;50318;54.760;9.408;2022-10-15T14:07:41;100055.97;;;19.20;67.13
64066;BME280;50318;54.760;9.408;2022-10-15T14:10:35;100041.09;;;19.18;67.29
64066;BME280;50318;54.760;9.408;2022-10-15T14:13:01;100049.66;;;19.20;67.24
64066;BME280;50318;54.760;9.408;2022-10-15T14:15:40;100051.16;;;19.21;67.63
64066;BME280;50318;54.760;9.408;2022-10-15T14:18:06;100046.13;;;19.19;67.39
64066;BME280;50318;54.760;9.408;2022-10-15T14:20:32;100052.22;;;19.18;66.75
64066;BME280;50318;54.760;9.408;2022-10-15T14:22:57;100049.94;;;19.16;67.03
64066;BME280;50318;54.760;9.408;2022-10-15T14:25:24;100057.09;;;19.12;67.06
64066;BME280;50318;54.760;9.408;2022-10-15T14:27:49;100054.59;;;19.08;67.11
64066;BME280;50318;54.760;9.408;2022-10-15T14:30:29;100049.34;;;19.05;66.92
64066;BME280;50318;54.760;9.408;2022-10-15T14:36:12;100055.72;;;18.99;67.12
64066;BME280;50318;54.760;9.408;2022-10-15T14:39:21;100057.75;;;18.99;67.09
64066;BME280;50318;54.760;9.408;2022-10-15T14:41:56;100064.38;;;18.96;67.08
64066;BME280;50318;54.760;9.408;2022-10-15T14:44:22;100056.81;;;18.91;66.70
64066;BME280;50318;54.760;9.408;2022-10-15T14:46:48;100057.13;;;18.87;66.75
64066;BME280;50318;54.760;9.408;2022-10-15T14:51:44;100050.59;;;18.85;67.21
64066;BME280;50318;54.760;9.408;2022-10-15T14:54:17;100052.84;;;18.86;67.32
64066;BME280;50318;54.760;9.408;2022-10-15T14:56:44;100055.63;;;18.86;66.77
64066;BME280;50318;54.760;9.408;2022-10-15T14:59:14;100044.28;;;18.84;66.49
64066;BME280;50318;54.760;9.408;2022-10-15T15:01:50;100039.47;;;18.85;66.63
64066;BME280;50318;54.760;9.408;2022-10-15T15:06:57;100043.75;;;18.86;66.68